sensor_id;sensor_type;location;lat;lon;timestamp;P1;durP1;ratioP1;P2;durP2;ratioP2
76903;SDS011;65865;51.698;-0.292;2023-01-08T00:01:05;3.65;;;0.80;;
76903;SDS011;65865;51.698;-0.292;2023-01-08T00:03:31;2.50;;;0.60;;
76903;SDS011;65865;51.698;-0.292;2023-01-08T00:06:01;2.05;;;0.73;;
76903;SDS011;65865;51.698;-0.292;2023-01-08T00:08:27;1.90;;;0.35;;
76903;SDS011;65865;51.698;-0.292;2023-01-08T00:10:53;0.93;;;0.50;;
76903;SDS011;65865;51.698;-0.292;2023-01-08T00:13:19;2.22;;;0.70;;
76903;SDS011;65865;51.698;-0.292;2023-01-08T00:15:46;3.05;;;0.70;;
76903;SDS011;65865;51.698;-0.292;2023-01-08T00:18:12;2.15;;;0.70;;
76903;SDS011;65865;51.698;-0.292;2023-01-08T00:20:41;3.53;;;0.70;;
76903;SDS011;65865;51.698;-0.292;2023-01-08T00:23:14;1.85;;;0.60;;
76903;SDS011;65865;51.698;-0.292;2023-01-08T00:25:40;2.00;;;0.63;;
76903;SDS011;65865;51.698;-0.292;2023-01-08T00:28:06;2.60;;;0.77;;
76903;SDS011;65865;51.698;-0.292;2023-01-08T00:30:33;2.38;;;0.80;;
76903;SDS011;65865;51.698;-0.292;2023-01-08T00:32:59;2.38;;;0.80;;
76903;SDS011;65865;51.698;-0.292;2023-01-08T00:35:25;2.50;;;0.60;;
76903;SDS011;65865;51.698;-0.292;2023-01-08T00:37:51;2.75;;;0.80;;
76903;SDS011;65865;51.698;-0.292;2023-01-08T00:40:17;2.83;;;0.80;;
76903;SDS011;65865;51.698;-0.292;2023-01-08T00:42:43;2.90;;;0.75;;
76903;SDS011;65865;51.698;-0.292;2023-01-08T00:45:09;2.15;;;0.70;;
76903;SDS011;65865;51.698;-0.292;2023-01-08T00:47:35;2.72;;;0.68;;
76903;SDS011;65865;51.698;-0.292;2023-01-08T00:50:02;3.50;;;0.95;;
76903;SDS011;65865;51.698;-0.292;2023-01-08T00:52:28;2.80;;;1.15;;
76903;SDS011;65865;51.698;-0.292;2023-01-08T00:54:54;2.08;;;0.70;;
76903;SDS011;65865;51.698;-0.292;2023-01-08T00:57:20;2.13;;;0.60;;
76903;SDS011;65865;51.698;-0.292;2023-01-08T00:59:46;2.55;;;0.70;;
76903;SDS011;65865;51.698;-0.292;2023-01-08T01:02:12;3.22;;;0.73;;
76903;SDS011;65865;51.698;-0.292;2023-01-08T01:04:38;3.05;;;0.70;;
76903;SDS011;65865;51.698;-0.292;2023-01-08T01:07:05;2.85;;;0.80;;
76903;SDS011;65865;51.698;-0.292;2023-01-08T01:09:31;1.52;;;0.73;;
76903;SDS011;65865;51.698;-0.292;2023-01-08T01:11:57;3.33;;;0.50;;
76903;SDS011;65865;51.698;-0.292;2023-01-08T01:14:23;2.42;;;0.38;;
76903;SDS011;65865;51.698;-0.292;2023-01-08T01:16:49;3.47;;;0.55;;
76903;SDS011;65865;51.698;-0.292;2023-01-08T01:19:15;2.25;;;0.60;;
76903;SDS011;65865;51.698;-0.292;2023-01-08T01:21:42;2.15;;;0.57;;
76903;SDS011;65865;51.698;-0.292;2023-01-08T01:24:08;1.80;;;0.80;;
76903;SDS011;65865;51.698;-0.292;2023-01-08T01:26:35;1.90;;;0.50;;
76903;SDS011;65865;51.698;-0.292;2023-01-08T01:29:01;4.85;;;0.93;;
76903;SDS011;65865;51.698;-0.292;2023-01-08T01:31:28;1.73;;;0.60;;
76903;SDS011;65865;51.698;-0.292;2023-01-08T01:33:54;2.58;;;0.60;;
76903;SDS011;65865;51.698;-0.292;2023-01-08T01:36:21;2.75;;;0.75;;
76903;SDS011;65865;51.698;-0.292;2023-01-08T01:38:51;2.47;;;0.68;;
76903;SDS011;65865;51.698;-0.292;2023-01-08T01:41:36;2.67;;;0.68;;
76903;SDS011;65865;51.698;-0.292;2023-01-08T01:46:47;1.73;;;0.60;;
76903;SDS011;65865;51.698;-0.292;2023-01-08T01:49:14;2.28;;;0.50;;
76903;SDS011;65865;51.698;-0.292;2023-01-08T01:51:44;3.35;;;0.75;;
76903;SDS011;65865;51.698;-0.292;2023-01-08T01:54:11;2.72;;;0.65;;
76903;SDS011;65865;51.698;-0.292;2023-01-08T01:56:38;2.22;;;0.70;;
76903;SDS011;65865;51.698;-0.292;2023-01-08T01:59:04;2.00;;;0.75;;
76903;SDS011;65865;51.698;-0.292;2023-01-08T02:01:30;1.65;;;0.80;;
76903;SDS011;65865;51.698;-0.292;2023-01-08T02:03:56;3.22;;;0.73;;
76903;SDS011;65865;51.698;-0.292;2023-01-08T02:14:22;2.58;;;0.90;;
76903;SDS011;65865;51.698;-0.292;2023-01-08T02:24:29;3.45;;;0.80;;
76903;SDS011;65865;51.698;-0.292;2023-01-08T02:26:58;3.15;;;0.63;;
76903;SDS011;65865;51.698;-0.292;2023-01-08T02:29:24;3.90;;;0.75;;
76903;SDS011;65865;51.698;-0.292;2023-01-08T02:31:52;2.42;;;0.60;;
76903;SDS011;65865;51.698;-0.292;2023-01-08T02:34:18;3.75;;;0.85;;
76903;SDS011;65865;51.698;-0.292;2023-01-08T02:36:51;2.42;;;0.70;;
76903;SDS011;65865;51.698;-0.292;2023-01-08T02:47:04;1.52;;;0.60;;
76903;SDS011;65865;51.698;-0.292;2023-01-08T02:49:31;3.40;;;0.60;;
76903;SDS011;65865;51.698;-0.292;2023-01-08T02:51:59;5.03;;;0.93;;
76903;SDS011;65865;51.698;-0.292;2023-01-08T02:54:28;3.40;;;0.75;;
76903;SDS011;65865;51.698;-0.292;2023-01-08T02:56:57;2.55;;;1.10;;
76903;SDS011;65865;51.698;-0.292;2023-01-08T02:59:24;2.13;;;0.77;;
76903;SDS011;65865;51.698;-0.292;2023-01-08T03:01:51;3.50;;;0.60;;
76903;SDS011;65865;51.698;-0.292;2023-01-08T03:04:18;2.72;;;1.02;;
76903;SDS011;65865;51.698;-0.292;2023-01-08T03:06:45;3.72;;;0.73;;
76903;SDS011;65865;51.698;-0.292;2023-01-08T03:09:11;2.60;;;0.77;;
76903;SDS011;65865;51.698;-0.292;2023-01-08T03:11:39;3.22;;;0.88;;
76903;SDS011;65865;51.698;-0.292;2023-01-08T03:14:07;3.00;;;0.82;;
76903;SDS011;65865;51.698;-0.292;2023-01-08T03:16:42;1.80;;;0.60;;
76903;SDS011;65865;51.698;-0.292;2023-01-08T03:19:11;2.63;;;0.70;;
76903;SDS011;65865;51.698;-0.292;2023-01-08T03:21:39;3.17;;;0.70;;
76903;SDS011;65865;51.698;-0.292;2023-01-08T03:24:07;2.80;;;0.50;;
76903;SDS011;65865;51.698;-0.292;2023-01-08T03:26:37;3.35;;;1.05;;
76903;SDS011;65865;51.698;-0.292;2023-01-08T03:29:03;2.05;;;0.50;;
76903;SDS011;65865;51.698;-0.292;2023-01-08T03:31:30;2.03;;;0.70;;
76903;SDS011;65865;51.698;-0.292;2023-01-08T03:33:59;2.90;;;0.85;;
76903;SDS011;65865;51.698;-0.292;2023-01-08T03:36:27;2.22;;;0.60;;
76903;SDS011;65865;51.698;-0.292;2023-01-08T03:39:36;2.55;;;1.00;;
76903;SDS011;65865;51.698;-0.292;2023-01-08T03:41:43;3.08;;;0.52;;
76903;SDS011;65865;51.698;-0.292;2023-01-08T03:44:09;2.08;;;0.70;;
76903;SDS011;65865;51.698;-0.292;2023-01-08T03:46:36;2.60;;;0.70;;
76903;SDS011;65865;51.698;-0.292;2023-01-08T03:49:05;3.65;;;0.80;;
76903;SDS011;65865;51.698;-0.292;2023-01-08T03:51:41;4.10;;;0.70;;
76903;SDS011;65865;51.698;-0.292;2023-01-08T03:54:08;3.22;;;0.75;;
76903;SDS011;65865;51.698;-0.292;2023-01-08T03:56:36;3.28;;;1.05;;
76903;SDS011;65865;51.698;-0.292;2023-01-08T03:59:01;3.60;;;0.68;;
76903;SDS011;65865;51.698;-0.292;2023-01-08T04:01:28;2.25;;;0.65;;
76903;SDS011;65865;51.698;-0.292;2023-01-08T04:03:54;2.33;;;0.68;;
76903;SDS011;65865;51.698;-0.292;2023-01-08T04:06:20;4.00;;;0.70;;
76903;SDS011;65865;51.698;-0.292;2023-01-08T04:08:46;2.75;;;0.75;;
76903;SDS011;65865;51.698;-0.292;2023-01-08T04:11:12;1.83;;;0.68;;
76903;SDS011;65865;51.698;-0.292;2023-01-08T04:13:38;1.30;;;0.40;;
76903;SDS011;65865;51.698;-0.292;2023-01-08T04:16:04;2.47;;;0.60;;
76903;SDS011;65865;51.698;-0.292;2023-01-08T04:18:32;2.83;;;0.68;;
76903;SDS011;65865;51.698;-0.292;2023-01-08T04:20:58;2.03;;;0.45;;
76903;SDS011;65865;51.698;-0.292;2023-01-08T04:23:24;2.65;;;0.65;;
76903;SDS011;65865;51.698;-0.292;2023-01-08T04:25:50;1.67;;;0.60;;
76903;SDS011;65865;51.698;-0.292;2023-01-08T04:28:16;3.35;;;0.88;;
76903;SDS011;65865;51.698;-0.292;2023-01-08T04:30:42;1.42;;;0.60;;
76903;SDS011;65865;51.698;-0.292;2023-01-08T04:33:08;2.28;;;1.00;;
76903;SDS011;65865;51.698;-0.292;2023-01-08T04:35:34;2.00;;;0.55;;
76903;SDS011;65865;51.698;-0.292;2023-01-08T04:38:01;1.83;;;0.70;;
76903;SDS011;65865;51.698;-0.292;2023-01-08T04:40:27;1.63;;;0.60;;
76903;SDS011;65865;51.698;-0.292;2023-01-08T04:42:53;2.78;;;0.50;;
76903;SDS011;65865;51.698;-0.292;2023-01-08T04:45:19;1.30;;;0.52;;
76903;SDS011;65865;51.698;-0.292;2023-01-08T04:47:45;1.63;;;0.45;;
76903;SDS011;65865;51.698;-0.292;2023-01-08T04:50:11;1.10;;;0.65;;
76903;SDS011;65865;51.698;-0.292;2023-01-08T04:52:37;1.40;;;0.73;;
76903;SDS011;65865;51.698;-0.292;2023-01-08T04:55:03;3.13;;;0.50;;
76903;SDS011;65865;51.698;-0.292;2023-01-08T04:57:29;2.70;;;0.65;;
76903;SDS011;65865;51.698;-0.292;2023-01-08T04:59:55;1.67;;;0.40;;
76903;SDS011;65865;51.698;-0.292;2023-01-08T05:02:21;1.90;;;0.50;;
76903;SDS011;65865;51.698;-0.292;2023-01-08T05:04:47;2.03;;;0.65;;
76903;SDS011;65865;51.698;-0.292;2023-01-08T05:07:13;1.05;;;0.50;;
76903;SDS011;65865;51.698;-0.292;2023-01-08T05:09:40;1.45;;;0.52;;
76903;SDS011;65865;51.698;-0.292;2023-01-08T05:12:06;2.08;;;0.60;;
76903;SDS011;65865;51.698;-0.292;2023-01-08T05:14:32;1.63;;;0.40;;
76903;SDS011;65865;51.698;-0.292;2023-01-08T05:16:58;1.08;;;0.40;;
76903;SDS011;65865;51.698;-0.292;2023-01-08T05:19:24;1.25;;;0.50;;
76903;SDS011;65865;51.698;-0.292;2023-01-08T05:21:50;1.08;;;0.47;;
76903;SDS011;65865;51.698;-0.292;2023-01-08T05:24:16;3.58;;;0.70;;
76903;SDS011;65865;51.698;-0.292;2023-01-08T05:26:42;2.13;;;0.52;;
76903;SDS011;65865;51.698;-0.292;2023-01-08T05:29:08;2.05;;;0.50;;
76903;SDS011;65865;51.698;-0.292;2023-01-08T05:31:34;1.17;;;0.30;;
76903;SDS011;65865;51.698;-0.292;2023-01-08T05:34:00;1.55;;;0.30;;
76903;SDS011;65865;51.698;-0.292;2023-01-08T05:36:26;2.15;;;0.55;;
76903;SDS011;65865;51.698;-0.292;2023-01-08T05:38:53;0.88;;;0.30;;
76903;SDS011;65865;51.698;-0.292;2023-01-08T05:41:19;2.47;;;0.93;;
76903;SDS011;65865;51.698;-0.292;2023-01-08T05:43:45;1.67;;;0.38;;
76903;SDS011;65865;51.698;-0.292;2023-01-08T05:46:11;1.05;;;0.35;;
76903;SDS011;65865;51.698;-0.292;2023-01-08T05:48:37;2.03;;;0.40;;
76903;SDS011;65865;51.698;-0.292;2023-01-08T05:51:03;1.48;;;0.47;;
76903;SDS011;65865;51.698;-0.292;2023-01-08T05:53:30;1.35;;;0.40;;
76903;SDS011;65865;51.698;-0.292;2023-01-08T05:55:57;0.80;;;0.45;;
76903;SDS011;65865;51.698;-0.292;2023-01-08T05:58:23;0.98;;;0.45;;
76903;SDS011;65865;51.698;-0.292;2023-01-08T06:00:51;1.75;;;0.50;;
76903;SDS011;65865;51.698;-0.292;2023-01-08T06:03:19;1.50;;;0.88;;
76903;SDS011;65865;51.698;-0.292;2023-01-08T06:05:45;1.52;;;0.50;;
76903;SDS011;65865;51.698;-0.292;2023-01-08T06:08:11;1.33;;;0.40;;
76903;SDS011;65865;51.698;-0.292;2023-01-08T06:10:37;1.65;;;0.40;;
76903;SDS011;65865;51.698;-0.292;2023-01-08T06:13:09;1.25;;;0.52;;
76903;SDS011;65865;51.698;-0.292;2023-01-08T06:15:38;1.25;;;0.30;;
76903;SDS011;65865;51.698;-0.292;2023-01-08T06:18:04;2.55;;;0.52;;
76903;SDS011;65865;51.698;-0.292;2023-01-08T06:20:31;0.90;;;0.17;;
76903;SDS011;65865;51.698;-0.292;2023-01-08T06:22:57;1.13;;;0.50;;
76903;SDS011;65865;51.698;-0.292;2023-01-08T06:25:23;1.75;;;0.50;;
76903;SDS011;65865;51.698;-0.292;2023-01-08T06:27:49;1.70;;;0.30;;
76903;SDS011;65865;51.698;-0.292;2023-01-08T06:30:16;1.92;;;0.40;;
76903;SDS011;65865;51.698;-0.292;2023-01-08T06:32:42;0.55;;;0.30;;
76903;SDS011;65865;51.698;-0.292;2023-01-08T06:35:08;0.95;;;0.30;;
76903;SDS011;65865;51.698;-0.292;2023-01-08T06:37:34;2.22;;;0.40;;
76903;SDS011;65865;51.698;-0.292;2023-01-08T06:40:00;0.82;;;0.30;;
76903;SDS011;65865;51.698;-0.292;2023-01-08T06:42:26;0.47;;;0.30;;
76903;SDS011;65865;51.698;-0.292;2023-01-08T06:44:52;1.35;;;0.50;;
76903;SDS011;65865;51.698;-0.292;2023-01-08T06:47:18;1.10;;;0.40;;
76903;SDS011;65865;51.698;-0.292;2023-01-08T06:49:44;0.20;;;0.10;;
76903;SDS011;65865;51.698;-0.292;2023-01-08T06:52:10;0.70;;;0.30;;
76903;SDS011;65865;51.698;-0.292;2023-01-08T06:54:36;1.27;;;0.38;;
76903;SDS011;65865;51.698;-0.292;2023-01-08T06:57:02;2.80;;;0.60;;
76903;SDS011;65865;51.698;-0.292;2023-01-08T06:59:28;1.23;;;0.52;;
76903;SDS011;65865;51.698;-0.292;2023-01-08T07:01:54;1.30;;;0.20;;
76903;SDS011;65865;51.698;-0.292;2023-01-08T07:04:20;0.90;;;0.30;;
76903;SDS011;65865;51.698;-0.292;2023-01-08T07:06:46;1.40;;;0.60;;
76903;SDS011;65865;51.698;-0.292;2023-01-08T07:09:13;2.22;;;0.40;;
76903;SDS011;65865;51.698;-0.292;2023-01-08T07:11:39;1.00;;;0.40;;
76903;SDS011;65865;51.698;-0.292;2023-01-08T07:14:05;1.10;;;0.30;;
76903;SDS011;65865;51.698;-0.292;2023-01-08T07:16:31;0.85;;;0.30;;
76903;SDS011;65865;51.698;-0.292;2023-01-08T07:18:58;0.52;;;0.40;;
76903;SDS011;65865;51.698;-0.292;2023-01-08T07:21:24;1.15;;;0.20;;
76903;SDS011;65865;51.698;-0.292;2023-01-08T07:23:50;1.00;;;0.30;;
76903;SDS011;65865;51.698;-0.292;2023-01-08T07:26:16;1.23;;;0.32;;
76903;SDS011;65865;51.698;-0.292;2023-01-08T07:28:42;1.25;;;0.30;;
76903;SDS011;65865;51.698;-0.292;2023-01-08T07:31:08;0.93;;;0.30;;
76903;SDS011;65865;51.698;-0.292;2023-01-08T07:33:34;0.90;;;0.20;;
76903;SDS011;65865;51.698;-0.292;2023-01-08T07:36:01;0.75;;;0.20;;
76903;SDS011;65865;51.698;-0.292;2023-01-08T07:38:27;1.52;;;0.45;;
76903;SDS011;65865;51.698;-0.292;2023-01-08T07:40:53;0.82;;;0.25;;
76903;SDS011;65865;51.698;-0.292;2023-01-08T07:43:19;0.68;;;0.30;;
76903;SDS011;65865;51.698;-0.292;2023-01-08T07:45:45;0.40;;;0.30;;
76903;SDS011;65865;51.698;-0.292;2023-01-08T07:48:11;0.22;;;0.20;;
76903;SDS011;65865;51.698;-0.292;2023-01-08T07:50:42;0.77;;;0.30;;
76903;SDS011;65865;51.698;-0.292;2023-01-08T07:53:09;0.55;;;0.22;;
76903;SDS011;65865;51.698;-0.292;2023-01-08T07:55:35;0.20;;;0.20;;
76903;SDS011;65865;51.698;-0.292;2023-01-08T07:58:05;0.55;;;0.20;;
76903;SDS011;65865;51.698;-0.292;2023-01-08T08:00:31;1.20;;;0.28;;
76903;SDS011;65865;51.698;-0.292;2023-01-08T08:03:01;0.60;;;0.40;;
76903;SDS011;65865;51.698;-0.292;2023-01-08T08:05:27;0.98;;;0.30;;
76903;SDS011;65865;51.698;-0.292;2023-01-08T08:07:53;1.08;;;0.30;;
76903;SDS011;65865;51.698;-0.292;2023-01-08T08:10:19;0.65;;;0.30;;
76903;SDS011;65865;51.698;-0.292;2023-01-08T08:12:45;0.30;;;0.20;;
76903;SDS011;65865;51.698;-0.292;2023-01-08T08:15:11;1.15;;;0.30;;
76903;SDS011;65865;51.698;-0.292;2023-01-08T08:17:37;0.47;;;0.20;;
76903;SDS011;65865;51.698;-0.292;2023-01-08T08:20:03;0.50;;;0.30;;
76903;SDS011;65865;51.698;-0.292;2023-01-08T08:22:29;1.17;;;0.25;;
76903;SDS011;65865;51.698;-0.292;2023-01-08T08:24:55;0.20;;;0.10;;
76903;SDS011;65865;51.698;-0.292;2023-01-08T08:27:21;0.20;;;0.03;;
76903;SDS011;65865;51.698;-0.292;2023-01-08T08:29:48;1.00;;;0.20;;
76903;SDS011;65865;51.698;-0.292;2023-01-08T08:32:14;0.73;;;0.15;;
76903;SDS011;65865;51.698;-0.292;2023-01-08T08:34:40;0.65;;;0.20;;
76903;SDS011;65865;51.698;-0.292;2023-01-08T08:37:06;1.92;;;0.40;;
76903;SDS011;65865;51.698;-0.292;2023-01-08T08:39:33;0.10;;;0.08;;
76903;SDS011;65865;51.698;-0.292;2023-01-08T08:41:59;0.30;;;0.20;;
76903;SDS011;65865;51.698;-0.292;2023-01-08T08:44:25;0.60;;;0.20;;
76903;SDS011;65865;51.698;-0.292;2023-01-08T08:46:51;0.55;;;0.20;;
76903;SDS011;65865;51.698;-0.292;2023-01-08T08:49:17;0.60;;;0.30;;
76903;SDS011;65865;51.698;-0.292;2023-01-08T08:51:43;0.50;;;0.20;;
76903;SDS011;65865;51.698;-0.292;2023-01-08T08:54:10;1.02;;;0.20;;
76903;SDS011;65865;51.698;-0.292;2023-01-08T08:56:36;1.05;;;0.20;;
76903;SDS011;65865;51.698;-0.292;2023-01-08T08:59:02;1.17;;;0.30;;
76903;SDS011;65865;51.698;-0.292;2023-01-08T09:01:28;0.80;;;0.30;;
76903;SDS011;65865;51.698;-0.292;2023-01-08T09:03:54;1.85;;;0.20;;
76903;SDS011;65865;51.698;-0.292;2023-01-08T09:06:20;0.73;;;0.20;;
76903;SDS011;65865;51.698;-0.292;2023-01-08T09:08:47;0.52;;;0.20;;
76903;SDS011;65865;51.698;-0.292;2023-01-08T09:11:13;1.13;;;0.30;;
76903;SDS011;65865;51.698;-0.292;2023-01-08T09:13:39;0.25;;;0.17;;
76903;SDS011;65865;51.698;-0.292;2023-01-08T09:16:05;0.45;;;0.30;;
76903;SDS011;65865;51.698;-0.292;2023-01-08T09:18:31;0.98;;;0.30;;
76903;SDS011;65865;51.698;-0.292;2023-01-08T09:20:57;1.23;;;0.30;;
76903;SDS011;65865;51.698;-0.292;2023-01-08T09:23:23;1.05;;;0.35;;
76903;SDS011;65865;51.698;-0.292;2023-01-08T09:25:49;0.93;;;0.38;;
76903;SDS011;65865;51.698;-0.292;2023-01-08T09:28:15;0.82;;;0.20;;
76903;SDS011;65865;51.698;-0.292;2023-01-08T09:30:41;0.45;;;0.35;;
76903;SDS011;65865;51.698;-0.292;2023-01-08T09:33:07;0.43;;;0.32;;
76903;SDS011;65865;51.698;-0.292;2023-01-08T09:35:34;0.43;;;0.20;;
76903;SDS011;65865;51.698;-0.292;2023-01-08T09:38:00;1.80;;;0.28;;
76903;SDS011;65865;51.698;-0.292;2023-01-08T09:40:50;0.85;;;0.40;;
76903;SDS011;65865;51.698;-0.292;2023-01-08T09:43:19;2.05;;;0.50;;
76903;SDS011;65865;51.698;-0.292;2023-01-08T09:45:49;0.90;;;0.40;;
76903;SDS011;65865;51.698;-0.292;2023-01-08T09:48:16;0.50;;;0.32;;
76903;SDS011;65865;51.698;-0.292;2023-01-08T09:50:43;0.73;;;0.40;;
76903;SDS011;65865;51.698;-0.292;2023-01-08T09:53:10;1.05;;;0.20;;
76903;SDS011;65865;51.698;-0.292;2023-01-08T09:55:38;0.65;;;0.25;;
76903;SDS011;65865;51.698;-0.292;2023-01-08T09:58:07;0.82;;;0.30;;
76903;SDS011;65865;51.698;-0.292;2023-01-08T10:00:38;1.45;;;0.50;;
76903;SDS011;65865;51.698;-0.292;2023-01-08T10:03:03;2.15;;;0.70;;
76903;SDS011;65865;51.698;-0.292;2023-01-08T10:05:29;5.40;;;1.05;;
76903;SDS011;65865;51.698;-0.292;2023-01-08T10:07:55;5.22;;;0.45;;
76903;SDS011;65865;51.698;-0.292;2023-01-08T10:10:23;2.67;;;0.60;;
76903;SDS011;65865;51.698;-0.292;2023-01-08T10:12:50;4.03;;;1.08;;
76903;SDS011;65865;51.698;-0.292;2023-01-08T10:15:18;3.45;;;1.02;;
76903;SDS011;65865;51.698;-0.292;2023-01-08T10:17:50;2.42;;;0.85;;
76903;SDS011;65865;51.698;-0.292;2023-01-08T10:20:20;3.85;;;1.08;;
76903;SDS011;65865;51.698;-0.292;2023-01-08T10:22:46;3.55;;;0.90;;
76903;SDS011;65865;51.698;-0.292;2023-01-08T10:25:14;2.80;;;0.75;;
76903;SDS011;65865;51.698;-0.292;2023-01-08T10:30:17;2.85;;;1.02;;
76903;SDS011;65865;51.698;-0.292;2023-01-08T10:32:49;3.95;;;1.00;;
76903;SDS011;65865;51.698;-0.292;2023-01-08T10:35:16;4.93;;;1.25;;
76903;SDS011;65865;51.698;-0.292;2023-01-08T10:37:43;3.95;;;1.20;;
76903;SDS011;65865;51.698;-0.292;2023-01-08T10:40:36;4.63;;;1.77;;
76903;SDS011;65865;51.698;-0.292;2023-01-08T10:43:07;5.03;;;2.20;;
76903;SDS011;65865;51.698;-0.292;2023-01-08T10:45:33;6.30;;;2.03;;
76903;SDS011;65865;51.698;-0.292;2023-01-08T10:48:01;6.53;;;2.28;;
76903;SDS011;65865;51.698;-0.292;2023-01-08T10:50:30;4.90;;;1.90;;
76903;SDS011;65865;51.698;-0.292;2023-01-08T10:53:00;5.00;;;2.60;;
76903;SDS011;65865;51.698;-0.292;2023-01-08T10:55:27;4.07;;;1.58;;
76903;SDS011;65865;51.698;-0.292;2023-01-08T10:57:55;3.13;;;1.08;;
76903;SDS011;65865;51.698;-0.292;2023-01-08T11:00:22;4.07;;;1.10;;
76903;SDS011;65865;51.698;-0.292;2023-01-08T11:02:48;5.55;;;0.98;;
76903;SDS011;65865;51.698;-0.292;2023-01-08T11:05:14;2.40;;;1.13;;
76903;SDS011;65865;51.698;-0.292;2023-01-08T11:07:40;4.70;;;1.17;;
76903;SDS011;65865;51.698;-0.292;2023-01-08T11:10:18;3.20;;;1.23;;
76903;SDS011;65865;51.698;-0.292;2023-01-08T11:12:46;2.47;;;1.13;;
76903;SDS011;65865;51.698;-0.292;2023-01-08T11:17:44;3.42;;;0.85;;
76903;SDS011;65865;51.698;-0.292;2023-01-08T11:20:21;1.90;;;0.70;;
76903;SDS011;65865;51.698;-0.292;2023-01-08T11:22:48;3.13;;;0.90;;
76903;SDS011;65865;51.698;-0.292;2023-01-08T11:25:17;2.67;;;0.80;;
76903;SDS011;65865;51.698;-0.292;2023-01-08T11:27:47;2.90;;;0.77;;
76903;SDS011;65865;51.698;-0.292;2023-01-08T11:30:22;1.77;;;0.65;;
76903;SDS011;65865;51.698;-0.292;2023-01-08T11:35:23;4.03;;;0.80;;
76903;SDS011;65865;51.698;-0.292;2023-01-08T11:37:50;1.67;;;0.63;;
76903;SDS011;65865;51.698;-0.292;2023-01-08T11:40:24;2.05;;;0.40;;
76903;SDS011;65865;51.698;-0.292;2023-01-08T11:45:27;2.88;;;0.47;;
76903;SDS011;65865;51.698;-0.292;2023-01-08T11:48:09;4.68;;;0.90;;
76903;SDS011;65865;51.698;-0.292;2023-01-08T11:50:39;3.97;;;0.80;;
76903;SDS011;65865;51.698;-0.292;2023-01-08T11:55:56;2.67;;;0.63;;
76903;SDS011;65865;51.698;-0.292;2023-01-08T12:03:32;1.20;;;0.47;;
76903;SDS011;65865;51.698;-0.292;2023-01-08T12:08:55;2.75;;;0.75;;
76903;SDS011;65865;51.698;-0.292;2023-01-08T12:11:27;2.90;;;0.63;;
76903;SDS011;65865;51.698;-0.292;2023-01-08T12:16:27;0.85;;;0.55;;
76903;SDS011;65865;51.698;-0.292;2023-01-08T12:19:03;3.17;;;0.88;;
76903;SDS011;65865;51.698;-0.292;2023-01-08T12:21:33;1.48;;;0.93;;
76903;SDS011;65865;51.698;-0.292;2023-01-08T12:24:14;3.85;;;1.02;;
76903;SDS011;65865;51.698;-0.292;2023-01-08T12:37:19;2.70;;;1.10;;
76903;SDS011;65865;51.698;-0.292;2023-01-08T12:39:52;3.05;;;1.50;;
76903;SDS011;65865;51.698;-0.292;2023-01-08T12:42:21;5.63;;;4.43;;
76903;SDS011;65865;51.698;-0.292;2023-01-08T12:44:50;3.92;;;2.33;;
76903;SDS011;65865;51.698;-0.292;2023-01-08T12:47:18;2.65;;;2.40;;
76903;SDS011;65865;51.698;-0.292;2023-01-08T12:49:51;2.40;;;2.03;;
76903;SDS011;65865;51.698;-0.292;2023-01-08T12:52:24;2.95;;;1.48;;
76903;SDS011;65865;51.698;-0.292;2023-01-08T12:54:53;1.60;;;1.20;;
76903;SDS011;65865;51.698;-0.292;2023-01-08T13:04:56;2.35;;;0.75;;
76903;SDS011;65865;51.698;-0.292;2023-01-08T13:07:24;2.05;;;0.90;;
76903;SDS011;65865;51.698;-0.292;2023-01-08T13:10:02;0.90;;;0.70;;
76903;SDS011;65865;51.698;-0.292;2023-01-08T13:12:36;1.55;;;0.90;;
76903;SDS011;65865;51.698;-0.292;2023-01-08T13:15:04;1.42;;;0.80;;
76903;SDS011;65865;51.698;-0.292;2023-01-08T13:17:30;2.90;;;0.70;;
76903;SDS011;65865;51.698;-0.292;2023-01-08T13:20:00;1.83;;;0.70;;
76903;SDS011;65865;51.698;-0.292;2023-01-08T13:22:27;0.93;;;0.65;;
76903;SDS011;65865;51.698;-0.292;2023-01-08T13:25:21;2.55;;;0.80;;
76903;SDS011;65865;51.698;-0.292;2023-01-08T13:27:51;2.55;;;0.60;;
76903;SDS011;65865;51.698;-0.292;2023-01-08T13:30:33;1.00;;;0.68;;
76903;SDS011;65865;51.698;-0.292;2023-01-08T13:33:00;0.60;;;0.35;;
76903;SDS011;65865;51.698;-0.292;2023-01-08T13:35:27;0.90;;;0.52;;
76903;SDS011;65865;51.698;-0.292;2023-01-08T13:38:11;1.08;;;0.70;;
76903;SDS011;65865;51.698;-0.292;2023-01-08T13:43:20;1.27;;;0.50;;
76903;SDS011;65865;51.698;-0.292;2023-01-08T13:45:58;1.63;;;0.68;;
76903;SDS011;65865;51.698;-0.292;2023-01-08T13:48:34;1.15;;;0.30;;
76903;SDS011;65865;51.698;-0.292;2023-01-08T13:51:01;1.38;;;0.65;;
76903;SDS011;65865;51.698;-0.292;2023-01-08T13:53:27;0.70;;;0.43;;
76903;SDS011;65865;51.698;-0.292;2023-01-08T13:55:57;2.13;;;0.52;;
76903;SDS011;65865;51.698;-0.292;2023-01-08T13:58:28;1.67;;;0.52;;
76903;SDS011;65865;51.698;-0.292;2023-01-08T14:00:57;1.48;;;0.60;;
76903;SDS011;65865;51.698;-0.292;2023-01-08T14:03:25;1.17;;;0.40;;
76903;SDS011;65865;51.698;-0.292;2023-01-08T14:05:51;2.33;;;0.70;;
76903;SDS011;65865;51.698;-0.292;2023-01-08T14:08:24;1.00;;;0.40;;
76903;SDS011;65865;51.698;-0.292;2023-01-08T14:10:51;1.20;;;0.50;;
76903;SDS011;65865;51.698;-0.292;2023-01-08T14:13:19;2.05;;;0.55;;
76903;SDS011;65865;51.698;-0.292;2023-01-08T14:15:47;1.30;;;0.57;;
76903;SDS011;65865;51.698;-0.292;2023-01-08T14:18:13;0.77;;;0.43;;
76903;SDS011;65865;51.698;-0.292;2023-01-08T14:20:40;2.17;;;0.55;;
76903;SDS011;65865;51.698;-0.292;2023-01-08T14:23:17;1.52;;;0.50;;
76903;SDS011;65865;51.698;-0.292;2023-01-08T14:25:47;1.23;;;0.50;;
76903;SDS011;65865;51.698;-0.292;2023-01-08T14:28:15;0.80;;;0.50;;
76903;SDS011;65865;51.698;-0.292;2023-01-08T14:30:48;1.33;;;0.57;;
76903;SDS011;65865;51.698;-0.292;2023-01-08T14:33:15;1.00;;;0.60;;
76903;SDS011;65865;51.698;-0.292;2023-01-08T14:35:42;1.60;;;0.30;;
76903;SDS011;65865;51.698;-0.292;2023-01-08T14:38:12;0.68;;;0.30;;
76903;SDS011;65865;51.698;-0.292;2023-01-08T14:40:40;1.58;;;0.52;;
76903;SDS011;65865;51.698;-0.292;2023-01-08T14:43:08;1.08;;;0.40;;
76903;SDS011;65865;51.698;-0.292;2023-01-08T14:45:36;1.45;;;0.70;;
76903;SDS011;65865;51.698;-0.292;2023-01-08T14:50:36;2.42;;;0.47;;
76903;SDS011;65865;51.698;-0.292;2023-01-08T14:53:22;0.60;;;0.30;;
76903;SDS011;65865;51.698;-0.292;2023-01-08T14:55:50;0.65;;;0.47;;
76903;SDS011;65865;51.698;-0.292;2023-01-08T14:58:19;1.70;;;0.40;;
76903;SDS011;65865;51.698;-0.292;2023-01-08T15:00:47;1.42;;;0.43;;
76903;SDS011;65865;51.698;-0.292;2023-01-08T15:03:27;0.88;;;0.43;;
76903;SDS011;65865;51.698;-0.292;2023-01-08T15:05:53;1.23;;;0.28;;
76903;SDS011;65865;51.698;-0.292;2023-01-08T15:08:23;1.17;;;0.30;;
76903;SDS011;65865;51.698;-0.292;2023-01-08T15:10:57;0.98;;;0.40;;
76903;SDS011;65865;51.698;-0.292;2023-01-08T15:13:24;1.10;;;0.50;;
76903;SDS011;65865;51.698;-0.292;2023-01-08T15:15:58;0.80;;;0.40;;
76903;SDS011;65865;51.698;-0.292;2023-01-08T15:18:25;0.63;;;0.47;;
76903;SDS011;65865;51.698;-0.292;2023-01-08T15:20:51;2.33;;;0.43;;
76903;SDS011;65865;51.698;-0.292;2023-01-08T15:23:23;1.40;;;0.50;;
76903;SDS011;65865;51.698;-0.292;2023-01-08T15:25:49;1.60;;;0.60;;
76903;SDS011;65865;51.698;-0.292;2023-01-08T15:28:16;1.77;;;0.65;;
76903;SDS011;65865;51.698;-0.292;2023-01-08T15:30:45;1.17;;;0.50;;
76903;SDS011;65865;51.698;-0.292;2023-01-08T15:33:20;0.98;;;0.40;;
76903;SDS011;65865;51.698;-0.292;2023-01-08T15:35:47;1.33;;;0.55;;
76903;SDS011;65865;51.698;-0.292;2023-01-08T15:38:13;1.33;;;0.43;;
76903;SDS011;65865;51.698;-0.292;2023-01-08T15:40:39;1.55;;;0.25;;
76903;SDS011;65865;51.698;-0.292;2023-01-08T15:43:08;1.27;;;0.32;;
76903;SDS011;65865;51.698;-0.292;2023-01-08T15:45:35;2.17;;;0.60;;
76903;SDS011;65865;51.698;-0.292;2023-01-08T15:48:02;0.95;;;0.50;;
76903;SDS011;65865;51.698;-0.292;2023-01-08T15:50:28;0.90;;;0.40;;